Time;durP1;ratioP1;P1;durP2;ratioP2;P2;SDS_P1;SDS_P2;PMS_P1;PMS_P2;Temp;Humidity;BMP_temperature;BMP_pressure;BME280_temperature;BME280_humidity;BME280_pressure;Samples;Min_cycle;Max_cycle;Signal;HPM_P1;HPM_P2
2024/01/20 00:01:06;;;;;;;80.60;37.97;;;-1.20;99.90;;;;;;4969099;28;20038;-78
2024/01/20 00:03:32;;;;;;;79.73;39.67;;;-1.20;99.90;;;;;;4954230;28;20054;-77
2024/01/20 00:05:59;;;;;;;82.73;40.77;;;-1.20;99.90;;;;;;4969290;28;20030;-79
2024/01/20 00:08:25;;;;;;;83.93;42.00;;;-1.30;99.90;;;;;;4968753;28;20339;-78
2024/01/20 00:10:51;;;;;;;80.20;41.20;;;-1.30;99.90;;;;;;4970330;28;20035;-77
2024/01/20 00:13:18;;;;;;;78.67;39.80;;;-1.30;99.90;;;;;;4968573;28;21520;-76
2024/01/20 00:15:44;;;;;;;81.43;40.40;;;-1.30;99.90;;;;;;4972787;28;20031;-78
2024/01/20 00:18:11;;;;;;;78.63;38.60;;;-1.30;99.90;;;;;;4970526;28;20042;-78
2024/01/20 00:20:37;;;;;;;75.97;36.53;;;-1.30;99.90;;;;;;4941858;28;20041;-73
2024/01/20 00:23:04;;;;;;;85.73;40.73;;;-1.30;99.90;;;;;;4968410;28;20041;-79
2024/01/20 00:25:30;;;;;;;83.73;38.07;;;-1.30;99.90;;;;;;4984335;28;20031;-78
2024/01/20 00:27:57;;;;;;;83.47;39.00;;;-1.20;99.90;;;;;;4968869;28;20038;-79
2024/01/20 00:30:23;;;;;;;87.73;39.13;;;-1.20;99.90;;;;;;5001539;28;20030;-77
2024/01/20 00:32:50;;;;;;;81.87;39.33;;;-1.20;99.90;;;;;;5002012;28;20026;-79
2024/01/20 00:35:16;;;;;;;89.73;40.07;;;-1.20;99.90;;;;;;4955975;28;20068;-79
2024/01/20 00:37:42;;;;;;;84.90;38.43;;;-1.10;99.90;;;;;;4971102;28;20034;-77
2024/01/20 00:40:09;;;;;;;94.23;42.50;;;-1.10;99.90;;;;;;4972000;28;20025;-79
2024/01/20 00:42:36;;;;;;;99.10;41.03;;;-1.20;99.90;;;;;;4973141;28;20053;-77
2024/01/20 00:45:04;;;;;;;103.73;43.07;;;-1.10;99.90;;;;;;4972643;28;20049;-79
2024/01/20 00:47:39;;;;;;;100.90;41.00;;;-1.10;99.90;;;;;;5073438;27;20519;-76
2024/01/20 00:50:07;;;;;;;104.30;41.53;;;-1.00;99.90;;;;;;5053893;28;20047;-77
2024/01/20 00:52:33;;;;;;;87.73;38.77;;;-1.00;99.90;;;;;;5068757;28;20032;-82
2024/01/20 00:54:59;;;;;;;95.87;39.37;;;-0.90;99.90;;;;;;5052729;28;20035;-75
2024/01/20 00:57:26;;;;;;;88.67;40.87;;;-0.90;99.90;;;;;;5035691;28;20058;-81
2024/01/20 00:59:52;;;;;;;101.23;43.07;;;-0.90;99.90;;;;;;5053760;28;20379;-77
2024/01/20 01:02:18;;;;;;;98.33;40.63;;;-0.80;99.90;;;;;;5053474;28;20024;-78
2024/01/20 01:04:45;;;;;;;96.30;43.13;;;-0.80;99.90;;;;;;5055507;28;20363;-81
2024/01/20 01:07:12;;;;;;;102.63;41.90;;;-0.70;99.90;;;;;;5054077;28;20455;-75
2024/01/20 01:09:38;;;;;;;99.27;42.03;;;-0.70;99.90;;;;;;5053941;28;20040;-77
2024/01/20 01:12:05;;;;;;;106.50;44.30;;;-0.70;99.90;;;;;;5035691;28;20962;-78
2024/01/20 01:14:31;;;;;;;102.07;41.90;;;-0.60;99.90;;;;;;5052435;28;20028;-77
2024/01/20 01:16:57;;;;;;;94.70;40.77;;;-0.60;99.90;;;;;;5052927;28;20028;-74
2024/01/20 01:19:24;;;;;;;97.27;40.20;;;-0.60;99.90;;;;;;5048445;28;20032;-81
2024/01/20 01:21:51;;;;;;;88.87;41.30;;;-0.60;99.90;;;;;;5050667;28;20051;-80
2024/01/20 01:24:18;;;;;;;103.73;43.87;;;-0.50;99.90;;;;;;5050872;28;20387;-79
2024/01/20 01:26:44;;;;;;;95.03;39.83;;;-0.50;99.90;;;;;;5067061;28;22084;-74
2024/01/20 01:29:10;;;;;;;98.23;42.00;;;-0.50;99.90;;;;;;5049191;28;20032;-80
2024/01/20 01:31:37;;;;;;;96.47;40.77;;;-0.40;99.90;;;;;;5084130;28;20067;-81
2024/01/20 01:34:03;;;;;;;89.30;39.67;;;-0.40;99.90;;;;;;5067389;28;20040;-76
2024/01/20 01:36:29;;;;;;;106.20;41.10;;;-0.40;99.90;;;;;;5085461;28;20027;-75
2024/01/20 01:38:56;;;;;;;108.87;42.93;;;-0.40;99.90;;;;;;5067618;28;20020;-76
2024/01/20 01:41:22;;;;;;;102.27;41.50;;;-0.40;99.90;;;;;;5067632;28;20028;-78
2024/01/20 01:43:48;;;;;;;94.57;40.13;;;-0.40;99.90;;;;;;5069618;28;20074;-78
2024/01/20 01:46:15;;;;;;;94.00;37.20;;;-0.30;99.90;;;;;;5070268;28;20036;-79
2024/01/20 01:48:41;;;;;;;96.33;41.93;;;-0.30;99.90;;;;;;5085738;28;20051;-79
2024/01/20 01:51:08;;;;;;;92.00;39.53;;;-0.30;99.90;;;;;;5070118;28;20028;-74
2024/01/20 01:53:34;;;;;;;95.33;39.87;;;-0.30;99.90;;;;;;5054525;28;20048;-79
2024/01/20 01:56:01;;;;;;;97.23;40.27;;;-0.30;99.90;;;;;;5087610;28;20435;-77
2024/01/20 01:58:28;;;;;;;87.50;39.73;;;-0.30;99.90;;;;;;5063079;28;20028;-76
2024/01/20 02:00:54;;;;;;;103.23;41.63;;;-0.30;99.90;;;;;;5040858;28;20552;-74
2024/01/20 02:03:21;;;;;;;86.73;37.87;;;-0.20;99.90;;;;;;5047685;28;20036;-81
2024/01/20 02:05:48;;;;;;;85.67;37.63;;;-0.20;99.90;;;;;;5038089;28;20040;-81
2024/01/20 02:08:14;;;;;;;92.30;39.27;;;-0.20;99.90;;;;;;5038140;28;20032;-80
2024/01/20 02:10:42;;;;;;;91.53;38.60;;;-0.20;99.90;;;;;;5018452;28;20043;-75
2024/01/20 02:13:13;;;;;;;84.27;36.10;;;-0.20;99.90;;;;;;5052575;28;20032;-81
2024/01/20 02:15:39;;;;;;;80.53;35.37;;;-0.20;99.90;;;;;;5053135;28;20051;-81
2024/01/20 02:18:06;;;;;;;85.83;37.67;;;-0.20;99.90;;;;;;5036542;28;20059;-78
2024/01/20 02:20:32;;;;;;;90.73;39.90;;;-0.20;99.90;;;;;;5036205;28;20111;-78
2024/01/20 02:22:59;;;;;;;81.17;36.00;;;-0.20;99.90;;;;;;5018483;28;20467;-75
2024/01/20 02:25:25;;;;;;;82.23;36.50;;;-0.30;99.90;;;;;;5035969;28;20037;-82
2024/01/20 02:27:52;;;;;;;91.03;38.17;;;-0.30;99.90;;;;;;5036814;28;20040;-78
2024/01/20 02:30:18;;;;;;;81.40;37.87;;;-0.30;99.90;;;;;;5037211;28;20028;-82
2024/01/20 02:32:44;;;;;;;89.47;37.57;;;-0.30;99.90;;;;;;5020002;28;20036;-82
2024/01/20 02:35:11;;;;;;;103.17;41.00;;;-0.30;99.90;;;;;;5037017;28;20040;-77
2024/01/20 02:37:38;;;;;;;85.70;36.43;;;-0.30;99.90;;;;;;5018347;28;20501;-80
2024/01/20 02:40:05;;;;;;;86.33;39.20;;;-0.30;99.90;;;;;;5056247;28;20032;-78
2024/01/20 02:42:31;;;;;;;86.53;39.23;;;-0.30;99.90;;;;;;5036438;28;20024;-75
2024/01/20 02:44:58;;;;;;;77.97;35.50;;;-0.30;99.90;;;;;;5051651;28;20039;-76
2024/01/20 02:47:24;;;;;;;80.77;34.23;;;-0.30;99.90;;;;;;5058110;28;20522;-78
2024/01/20 02:49:51;;;;;;;89.87;36.07;;;-0.30;99.90;;;;;;5057326;28;20120;-79
2024/01/20 02:52:17;;;;;;;84.60;35.53;;;-0.30;99.90;;;;;;5069484;28;20043;-78
2024/01/20 02:54:44;;;;;;;86.60;35.50;;;-0.30;99.90;;;;;;5042494;28;20490;-74
2024/01/20 02:57:10;;;;;;;83.10;32.60;;;-0.30;99.90;;;;;;5020022;28;20025;-80
2024/01/20 02:59:36;;;;;;;90.40;36.23;;;-0.30;99.90;;;;;;5037918;28;20031;-79
2024/01/20 03:02:03;;;;;;;70.57;32.23;;;-0.30;99.90;;;;;;5037126;28;20391;-77
2024/01/20 03:04:29;;;;;;;81.53;35.27;;;-0.30;99.90;;;;;;5055004;28;20036;-80
2024/01/20 03:06:56;;;;;;;69.30;31.53;;;-0.40;99.90;;;;;;5053000;28;20490;-76
2024/01/20 03:09:22;;;;;;;73.53;30.40;;;-0.40;99.90;;;;;;5052403;28;20376;-74
2024/01/20 03:11:49;;;;;;;81.70;34.13;;;-0.50;99.90;;;;;;5037202;28;20043;-77
2024/01/20 03:14:15;;;;;;;72.27;32.20;;;-0.60;99.90;;;;;;5038153;28;20486;-78
2024/01/20 03:16:41;;;;;;;74.50;32.97;;;-0.60;99.90;;;;;;5052201;28;20057;-76
2024/01/20 03:19:08;;;;;;;89.13;35.97;;;-0.60;99.90;;;;;;5050945;28;20032;-78
2024/01/20 03:21:35;;;;;;;80.20;32.10;;;-0.70;99.90;;;;;;5051187;28;20080;-76
2024/01/20 03:24:01;;;;;;;60.93;29.03;;;-0.70;99.90;;;;;;5068201;28;20032;-77
2024/01/20 03:26:28;;;;;;;69.93;29.80;;;-0.70;99.90;;;;;;5087206;27;20033;-75
2024/01/20 03:28:54;;;;;;;70.40;30.63;;;-0.80;99.90;;;;;;5035506;28;20048;-74
2024/01/20 03:31:21;;;;;;;76.43;31.37;;;-0.80;99.90;;;;;;5020103;28;20036;-77
2024/01/20 03:33:47;;;;;;;69.57;27.90;;;-0.80;99.90;;;;;;5038869;28;20032;-78
2024/01/20 03:36:14;;;;;;;66.03;29.53;;;-0.90;99.90;;;;;;5087221;27;20029;-73
2024/01/20 03:38:40;;;;;;;74.30;30.10;;;-0.80;99.90;;;;;;5036393;28;20515;-76
2024/01/20 03:41:08;;;;;;;65.37;27.83;;;-0.90;99.90;;;;;;5034140;28;20041;-78
2024/01/20 03:43:34;;;;;;;83.17;32.93;;;-0.90;99.90;;;;;;5085084;27;20316;-80
2024/01/20 03:46:00;;;;;;;68.93;29.97;;;-1.00;99.90;;;;;;5014833;28;20047;-79
2024/01/20 03:48:27;;;;;;;68.17;27.87;;;-1.00;99.90;;;;;;5033885;28;20032;-74
2024/01/20 03:50:53;;;;;;;62.43;27.53;;;-1.10;99.90;;;;;;5050458;28;20036;-78
2024/01/20 03:53:20;;;;;;;67.97;28.03;;;-1.10;99.90;;;;;;5015159;28;20028;-76
2024/01/20 03:55:46;;;;;;;81.47;30.90;;;-1.10;99.90;;;;;;5035171;28;20429;-75
2024/01/20 03:58:12;;;;;;;69.17;28.07;;;-1.20;99.90;;;;;;5053042;28;20063;-78
2024/01/20 04:00:39;;;;;;;74.03;31.07;;;-1.20;99.90;;;;;;5052987;28;20502;-79
2024/01/20 04:03:05;;;;;;;67.60;27.30;;;-1.20;99.90;;;;;;5069316;28;20036;-74
2024/01/20 04:05:32;;;;;;;63.37;28.27;;;-1.30;99.90;;;;;;5053949;28;20033;-76
2024/01/20 04:07:58;;;;;;;76.50;33.07;;;-1.30;99.90;;;;;;5022476;28;20039;-77
2024/01/20 04:10:25;;;;;;;77.03;31.17;;;-1.30;99.90;;;;;;5054339;28;20040;-74
2024/01/20 04:12:52;;;;;;;72.67;29.93;;;-1.30;99.90;;;;;;5054265;28;20020;-76
2024/01/20 04:15:18;;;;;;;74.20;32.23;;;-1.30;99.90;;;;;;5055106;28;20032;-80
2024/01/20 04:17:45;;;;;;;74.07;31.27;;;-1.40;99.90;;;;;;5018615;28;20028;-76
2024/01/20 04:20:11;;;;;;;73.87;29.17;;;-1.30;99.90;;;;;;5052248;28;20517;-76
2024/01/20 04:22:38;;;;;;;64.80;28.03;;;-1.40;99.90;;;;;;5035053;28;20078;-79
2024/01/20 04:25:05;;;;;;;75.67;29.37;;;-1.30;99.90;;;;;;5052851;28;20047;-78
2024/01/20 04:27:31;;;;;;;70.93;27.60;;;-1.30;99.90;;;;;;5050790;28;20028;-77
2024/01/20 04:29:57;;;;;;;64.17;28.17;;;-1.40;99.90;;;;;;5019270;28;20039;-79
2024/01/20 04:32:24;;;;;;;83.27;33.63;;;-1.40;99.90;;;;;;5033365;28;20020;-75
2024/01/20 04:34:50;;;;;;;82.63;33.73;;;-1.40;99.90;;;;;;5036428;28;20034;-79
2024/01/20 04:37:16;;;;;;;73.03;29.73;;;-1.40;99.90;;;;;;5050125;28;20158;-77
2024/01/20 04:39:42;;;;;;;72.57;29.47;;;-1.40;99.90;;;;;;5033830;28;20040;-77
2024/01/20 04:42:09;;;;;;;71.57;28.70;;;-1.40;99.90;;;;;;5036014;28;20035;-76
2024/01/20 04:44:35;;;;;;;69.33;29.87;;;-1.40;99.90;;;;;;5055811;28;20066;-73
2024/01/20 04:47:01;;;;;;;61.50;25.60;;;-1.40;99.90;;;;;;5026521;28;20604;-77
2024/01/20 04:49:28;;;;;;;63.13;25.13;;;-1.30;99.90;;;;;;5042098;28;20691;-77
2024/01/20 04:51:57;;;;;;;71.67;31.43;;;-1.40;99.90;;;;;;5050208;28;20024;-77
2024/01/20 04:54:23;;;;;;;90.30;34.77;;;-1.40;99.90;;;;;;5051814;28;20055;-73
2024/01/20 04:56:49;;;;;;;65.97;28.97;;;-1.30;99.90;;;;;;5051962;28;20048;-76
2024/01/20 04:59:18;;;;;;;68.50;30.77;;;-1.30;99.90;;;;;;5051693;28;20495;-74
2024/01/20 05:01:48;;;;;;;75.03;30.80;;;-1.40;99.90;;;;;;5038517;28;20055;-76
2024/01/20 05:04:15;;;;;;;76.00;29.67;;;-1.40;99.90;;;;;;5029631;28;20047;-78
2024/01/20 05:06:45;;;;;;;69.33;27.17;;;-1.40;99.90;;;;;;5014699;28;22744;-74
2024/01/20 05:09:13;;;;;;;70.80;29.23;;;-1.40;99.90;;;;;;5050447;28;20033;-79
2024/01/20 05:11:40;;;;;;;66.87;27.60;;;-1.40;99.90;;;;;;5079486;28;20029;-77
2024/01/20 05:14:07;;;;;;;61.70;27.10;;;-1.40;99.90;;;;;;5032797;28;20032;-77
2024/01/20 05:16:33;;;;;;;68.30;27.83;;;-1.30;99.90;;;;;;5048472;28;20371;-78
2024/01/20 05:19:00;;;;;;;65.67;26.13;;;-1.30;99.90;;;;;;5043039;28;20047;-77
2024/01/20 05:21:26;;;;;;;69.33;27.37;;;-1.30;99.90;;;;;;5046895;28;20028;-76
2024/01/20 05:23:53;;;;;;;68.23;29.30;;;-1.20;99.90;;;;;;5048081;28;20036;-80
2024/01/20 05:26:19;;;;;;;81.73;32.07;;;-1.20;99.90;;;;;;5051362;28;20027;-75
2024/01/20 05:28:45;;;;;;;80.77;31.90;;;-1.20;99.90;;;;;;5034378;28;20051;-80
2024/01/20 05:31:12;;;;;;;68.53;30.20;;;-1.20;99.90;;;;;;5051648;28;20025;-74
2024/01/20 05:33:38;;;;;;;60.13;28.23;;;-1.20;99.90;;;;;;5038376;28;20035;-79
2024/01/20 05:36:05;;;;;;;60.80;27.73;;;-1.20;99.90;;;;;;5056836;28;20025;-77
2024/01/20 05:38:32;;;;;;;71.73;29.03;;;-1.20;99.90;;;;;;5055628;28;20048;-79
2024/01/20 05:40:58;;;;;;;65.70;27.63;;;-1.20;99.90;;;;;;5055959;28;20032;-75
2024/01/20 05:43:24;;;;;;;68.80;28.87;;;-1.10;99.90;;;;;;5020556;28;20354;-76
2024/01/20 05:45:51;;;;;;;66.57;28.27;;;-1.10;99.90;;;;;;5055177;28;20067;-74
2024/01/20 05:48:17;;;;;;;66.80;29.57;;;-1.10;99.90;;;;;;5053292;28;20033;-73
2024/01/20 05:50:44;;;;;;;64.53;27.30;;;-1.00;99.90;;;;;;5053104;28;20025;-77
2024/01/20 05:53:10;;;;;;;56.33;25.00;;;-1.00;99.90;;;;;;5035732;28;20032;-76
2024/01/20 05:55:36;;;;;;;63.07;26.70;;;-1.00;99.90;;;;;;5036817;28;20039;-75
2024/01/20 05:58:03;;;;;;;65.87;28.17;;;-1.00;99.90;;;;;;5053067;28;20497;-78
2024/01/20 06:00:29;;;;;;;64.27;28.13;;;-1.00;99.90;;;;;;5070499;28;20048;-78
2024/01/20 06:02:56;;;;;;;61.57;26.50;;;-1.00;99.90;;;;;;5040590;28;20631;-77
2024/01/20 06:05:22;;;;;;;62.03;25.97;;;-1.10;99.90;;;;;;5057072;28;20033;-79
2024/01/20 06:07:49;;;;;;;58.53;26.60;;;-1.10;99.90;;;;;;5057759;28;20190;-79
2024/01/20 06:10:15;;;;;;;57.77;25.37;;;-1.10;99.90;;;;;;5038235;28;20609;-75
2024/01/20 06:12:42;;;;;;;62.73;27.90;;;-1.10;99.90;;;;;;5038957;28;20039;-77
2024/01/20 06:15:09;;;;;;;60.87;27.53;;;-1.10;99.90;;;;;;5068847;28;20685;-80
2024/01/20 06:17:36;;;;;;;72.00;29.33;;;-1.10;99.90;;;;;;5040766;28;20541;-75
2024/01/20 06:20:03;;;;;;;58.93;28.00;;;-1.10;99.90;;;;;;5056088;28;20024;-74
2024/01/20 06:22:30;;;;;;;59.03;25.93;;;-1.10;99.90;;;;;;5055920;28;20025;-80
2024/01/20 06:24:56;;;;;;;70.83;28.27;;;-1.20;99.90;;;;;;5038321;28;20021;-78
2024/01/20 06:27:22;;;;;;;63.60;27.03;;;-1.20;99.90;;;;;;5056084;28;20024;-80
2024/01/20 06:29:49;;;;;;;63.80;27.17;;;-1.20;99.90;;;;;;5036419;28;20071;-74
2024/01/20 06:32:15;;;;;;;61.43;25.90;;;-1.20;99.90;;;;;;5057636;28;20032;-78
2024/01/20 06:34:42;;;;;;;73.13;29.43;;;-1.20;99.90;;;;;;5019149;28;20029;-81
2024/01/20 06:37:08;;;;;;;64.33;28.17;;;-1.10;99.90;;;;;;5055352;28;20529;-79
2024/01/20 06:39:35;;;;;;;62.13;28.50;;;-1.10;99.90;;;;;;5041017;28;20375;-77
2024/01/20 06:42:01;;;;;;;71.53;26.57;;;-1.10;99.90;;;;;;5042671;28;20471;-74
2024/01/20 06:44:27;;;;;;;59.73;27.13;;;-1.10;99.90;;;;;;5041174;28;20763;-77
2024/01/20 06:46:54;;;;;;;61.00;27.10;;;-1.10;99.90;;;;;;5031775;28;20033;-79
2024/01/20 06:49:20;;;;;;;64.43;27.70;;;-1.10;99.90;;;;;;5036913;28;20526;-77
2024/01/20 06:51:47;;;;;;;64.37;27.13;;;-1.10;99.90;;;;;;5038962;28;20025;-79
2024/01/20 06:54:14;;;;;;;63.13;24.80;;;-1.20;99.90;;;;;;5055261;28;20585;-80
2024/01/20 06:56:42;;;;;;;56.77;25.63;;;-1.20;99.90;;;;;;5038112;28;20036;-77
2024/01/20 06:59:08;;;;;;;62.97;26.47;;;-1.20;99.90;;;;;;5035979;28;20396;-74
2024/01/20 07:01:34;;;;;;;68.23;29.03;;;-1.30;99.90;;;;;;5039038;28;20036;-79
2024/01/20 07:04:01;;;;;;;70.33;29.43;;;-1.30;99.90;;;;;;5051672;28;20043;-75
2024/01/20 07:06:27;;;;;;;58.70;24.90;;;-1.30;99.90;;;;;;5051514;28;20048;-77
2024/01/20 07:08:54;;;;;;;73.83;29.30;;;-1.30;99.90;;;;;;5087182;27;20484;-79
2024/01/20 07:11:23;;;;;;;60.20;25.33;;;-1.30;99.90;;;;;;5088357;27;20032;-77
2024/01/20 07:13:49;;;;;;;73.27;28.10;;;-1.30;99.90;;;;;;5038462;28;20028;-78
2024/01/20 07:16:18;;;;;;;58.73;25.53;;;-1.40;99.90;;;;;;5040463;28;20383;-78
2024/01/20 07:18:45;;;;;;;60.47;25.73;;;-1.40;99.90;;;;;;5037515;28;20364;-79
2024/01/20 07:21:11;;;;;;;57.20;24.70;;;-1.40;99.90;;;;;;5085169;27;20035;-76
2024/01/20 07:23:37;;;;;;;58.40;25.37;;;-1.40;99.90;;;;;;5053071;28;20104;-80
2024/01/20 07:26:04;;;;;;;53.17;23.53;;;-1.40;99.90;;;;;;5034554;28;20051;-76
2024/01/20 07:28:30;;;;;;;65.77;26.40;;;-1.40;99.90;;;;;;5053302;28;20040;-78
2024/01/20 07:30:57;;;;;;;62.27;27.57;;;-1.40;99.90;;;;;;5053858;28;20040;-78
2024/01/20 07:33:23;;;;;;;60.63;25.77;;;-1.40;99.90;;;;;;5053200;28;20024;-80
2024/01/20 07:35:49;;;;;;;77.17;30.47;;;-1.40;99.90;;;;;;5036199;28;20028;-75
2024/01/20 07:38:16;;;;;;;59.80;25.70;;;-1.40;99.90;;;;;;5052736;28;20405;-77
2024/01/20 07:40:42;;;;;;;65.20;26.03;;;-1.40;99.90;;;;;;5053450;28;20044;-80
2024/01/20 07:43:09;;;;;;;60.03;26.77;;;-1.30;99.90;;;;;;5055371;28;20028;-80
2024/01/20 07:45:35;;;;;;;57.57;23.87;;;-1.30;99.90;;;;;;5071923;28;20036;-80
2024/01/20 07:48:02;;;;;;;61.60;25.57;;;-1.30;99.90;;;;;;5034121;28;20042;-76
2024/01/20 07:50:29;;;;;;;78.10;31.63;;;-1.30;99.90;;;;;;5053632;28;20037;-77
2024/01/20 07:52:55;;;;;;;69.07;29.20;;;-1.20;99.90;;;;;;5038118;28;20048;-79
2024/01/20 07:55:22;;;;;;;68.93;28.27;;;-1.20;99.90;;;;;;5054516;28;20375;-77
2024/01/20 07:57:49;;;;;;;65.70;28.03;;;-1.10;99.90;;;;;;5053051;28;20029;-74
2024/01/20 08:00:16;;;;;;;65.40;26.97;;;-1.00;99.90;;;;;;5037419;28;20562;-77
2024/01/20 08:02:42;;;;;;;68.13;28.50;;;-1.00;99.90;;;;;;5053691;28;20032;-79
2024/01/20 08:05:09;;;;;;;64.57;28.23;;;-0.90;99.90;;;;;;5050765;28;20059;-78
2024/01/20 08:07:35;;;;;;;65.47;28.40;;;-0.80;99.90;;;;;;5054667;28;20022;-76
2024/01/20 08:10:02;;;;;;;68.50;28.63;;;-0.80;99.90;;;;;;5015989;28;20037;-77
2024/01/20 08:12:28;;;;;;;69.87;29.07;;;-0.70;99.90;;;;;;5032477;28;20039;-76
2024/01/20 08:14:55;;;;;;;66.10;29.50;;;-0.60;99.90;;;;;;5052984;28;20021;-77
2024/01/20 08:17:21;;;;;;;66.70;27.37;;;-0.60;99.90;;;;;;5051429;28;20044;-75
2024/01/20 08:19:49;;;;;;;59.10;25.27;;;-0.50;99.90;;;;;;5052672;28;20044;-78
2024/01/20 08:22:15;;;;;;;62.97;26.47;;;-0.40;99.90;;;;;;5034992;28;20378;-75
2024/01/20 08:24:42;;;;;;;60.67;27.43;;;-0.30;99.90;;;;;;5050292;28;20035;-77
2024/01/20 08:27:08;;;;;;;73.97;31.37;;;-0.20;99.90;;;;;;5018022;28;20024;-76
2024/01/20 08:29:36;;;;;;;71.33;30.07;;;-0.20;99.90;;;;;;5052699;28;20380;-75
2024/01/20 08:32:02;;;;;;;66.60;28.40;;;-0.10;99.90;;;;;;5050725;28;20025;-78
2024/01/20 08:34:29;;;;;;;61.27;27.00;;;0.00;99.90;;;;;;5029826;28;20043;-76
2024/01/20 08:36:55;;;;;;;65.10;27.90;;;0.10;99.90;;;;;;5034746;28;20356;-75
2024/01/20 08:39:21;;;;;;;60.03;26.73;;;0.20;99.90;;;;;;5052551;28;20032;-79
2024/01/20 08:41:48;;;;;;;68.87;27.87;;;0.30;99.90;;;;;;5054783;28;20024;-80
2024/01/20 08:44:14;;;;;;;58.30;27.17;;;0.40;99.90;;;;;;5056870;28;20020;-80
2024/01/20 08:46:41;;;;;;;53.80;26.60;;;0.40;99.90;;;;;;5071152;28;20040;-77
2024/01/20 08:49:07;;;;;;;60.43;27.43;;;0.50;99.90;;;;;;5053917;28;20041;-77
2024/01/20 08:51:34;;;;;;;53.07;26.60;;;0.50;99.90;;;;;;5021829;28;20054;-79
2024/01/20 08:54:00;;;;;;;58.00;26.23;;;0.60;99.90;;;;;;5036076;28;20051;-79
2024/01/20 08:56:26;;;;;;;57.10;26.10;;;0.70;99.90;;;;;;5054351;28;20125;-79
2024/01/20 08:58:53;;;;;;;53.50;25.77;;;0.70;99.90;;;;;;5054755;28;20028;-75
2024/01/20 09:01:19;;;;;;;53.77;25.30;;;0.70;99.90;;;;;;5036781;28;20021;-74
2024/01/20 09:03:45;;;;;;;56.63;25.73;;;0.80;99.90;;;;;;5053147;28;20036;-77
2024/01/20 09:06:12;;;;;;;60.87;26.83;;;0.80;99.90;;;;;;5034937;28;20502;-77
2024/01/20 09:08:39;;;;;;;56.33;26.43;;;0.80;99.90;;;;;;5037433;28;20036;-78
2024/01/20 09:11:05;;;;;;;51.97;24.57;;;0.80;99.90;;;;;;5090977;27;20036;-78
2024/01/20 09:13:32;;;;;;;55.13;26.97;;;0.80;99.90;;;;;;5019869;28;20051;-77
2024/01/20 09:15:58;;;;;;;58.37;27.20;;;0.90;99.90;;;;;;5022468;28;20391;-76
2024/01/20 09:18:25;;;;;;;48.93;25.07;;;0.80;99.90;;;;;;5070033;28;20033;-77
2024/01/20 09:20:51;;;;;;;56.60;26.07;;;0.90;99.90;;;;;;5055414;28;20036;-77
2024/01/20 09:23:17;;;;;;;52.90;24.43;;;0.90;99.90;;;;;;5037424;28;20517;-79
2024/01/20 09:25:44;;;;;;;49.90;24.07;;;0.90;99.90;;;;;;5056449;28;20808;-76
2024/01/20 09:28:11;;;;;;;48.23;23.93;;;0.90;99.90;;;;;;5056217;28;20040;-76
2024/01/20 09:30:39;;;;;;;53.67;25.47;;;0.90;99.90;;;;;;5055724;28;20040;-76
2024/01/20 09:33:05;;;;;;;46.60;22.93;;;0.90;99.90;;;;;;5016754;28;20356;-76
2024/01/20 09:35:31;;;;;;;45.93;23.73;;;0.90;99.90;;;;;;5055452;28;20145;-78
2024/01/20 09:37:58;;;;;;;47.90;25.87;;;0.90;99.90;;;;;;5035475;28;20028;-75
2024/01/20 09:40:24;;;;;;;50.90;24.40;;;0.90;99.90;;;;;;5055418;28;20355;-74
2024/01/20 09:42:51;;;;;;;47.17;23.83;;;1.00;99.90;;;;;;5039105;28;20039;-79
2024/01/20 09:45:18;;;;;;;46.00;22.13;;;1.00;99.90;;;;;;5055504;28;20020;-77
2024/01/20 09:47:45;;;;;;;46.73;23.53;;;1.00;99.90;;;;;;5068701;28;20040;-77
2024/01/20 09:50:11;;;;;;;49.47;23.03;;;1.10;99.90;;;;;;5068693;28;20459;-75
2024/01/20 09:52:57;;;;;;;41.30;20.63;;;1.20;99.90;;;;;;5067466;28;20037;-78
2024/01/20 09:55:26;;;;;;;47.63;23.80;;;1.20;99.90;;;;;;5033256;28;20662;-77
2024/01/20 09:57:53;;;;;;;48.13;23.53;;;1.30;99.90;;;;;;5056007;28;20040;-78
2024/01/20 10:00:22;;;;;;;47.13;23.77;;;1.30;99.90;;;;;;5053334;28;20039;-80
2024/01/20 10:02:48;;;;;;;40.47;22.57;;;1.30;99.90;;;;;;5053553;28;20498;-81
2024/01/20 10:05:15;;;;;;;43.20;23.50;;;1.40;99.90;;;;;;5037462;28;20471;-78
2024/01/20 10:07:42;;;;;;;52.43;25.63;;;1.40;99.90;;;;;;5055186;28;20031;-79
2024/01/20 10:10:19;;;;;;;50.37;25.37;;;1.40;99.90;;;;;;5053384;28;20032;-78
2024/01/20 10:12:49;;;;;;;47.93;24.00;;;1.40;99.90;;;;;;5037018;28;20039;-74
2024/01/20 10:15:15;;;;;;;46.13;24.60;;;1.40;99.90;;;;;;5017004;28;20039;-76
2024/01/20 10:17:41;;;;;;;45.23;23.90;;;1.40;99.90;;;;;;5035266;28;20041;-75
2024/01/20 10:20:08;;;;;;;44.70;23.60;;;1.50;99.90;;;;;;5037622;28;20017;-81
2024/01/20 10:22:34;;;;;;;47.37;24.70;;;1.60;99.90;;;;;;5070092;28;20700;-80
2024/01/20 10:25:01;;;;;;;48.17;25.23;;;1.70;99.90;;;;;;5022536;28;20024;-80
2024/01/20 10:27:28;;;;;;;46.53;24.90;;;1.80;99.90;;;;;;5021533;28;20045;-79
2024/01/20 10:29:54;;;;;;;46.07;24.50;;;1.70;99.90;;;;;;5034816;28;20055;-79
2024/01/20 10:32:20;;;;;;;42.37;23.23;;;1.70;99.90;;;;;;5053438;28;20037;-76
2024/01/20 10:34:47;;;;;;;46.03;23.80;;;1.70;99.90;;;;;;5053171;28;20017;-76
2024/01/20 10:37:14;;;;;;;42.53;23.13;;;1.70;99.90;;;;;;5053938;28;20043;-83
2024/01/20 10:39:45;;;;;;;45.93;23.83;;;1.60;99.90;;;;;;5054050;28;20024;-75
2024/01/20 10:42:13;;;;;;;41.00;23.37;;;1.50;99.90;;;;;;5083400;27;20048;-80
2024/01/20 10:44:44;;;;;;;45.67;24.40;;;1.50;99.90;;;;;;5040938;28;20040;-80
2024/01/20 10:47:21;;;;;;;42.73;22.97;;;1.60;99.90;;;;;;5074152;28;20036;-78
2024/01/20 10:49:49;;;;;;;40.07;22.70;;;1.60;99.90;;;;;;5046624;28;20032;-79
2024/01/20 10:52:17;;;;;;;39.90;22.70;;;1.70;99.90;;;;;;5053734;28;20526;-75
2024/01/20 10:54:44;;;;;;;42.67;24.00;;;1.70;99.90;;;;;;5053392;28;20048;-78
2024/01/20 10:57:11;;;;;;;47.23;23.77;;;1.70;99.90;;;;;;5019914;28;20036;-81
2024/01/20 10:59:41;;;;;;;40.70;23.80;;;1.70;99.90;;;;;;5051712;28;20050;-77
2024/01/20 11:02:10;;;;;;;44.53;23.40;;;1.70;99.90;;;;;;5052192;28;20032;-76
2024/01/20 11:04:40;;;;;;;41.03;23.27;;;1.70;99.90;;;;;;5052520;28;20031;-79
2024/01/20 11:07:08;;;;;;;44.83;24.00;;;1.70;99.90;;;;;;5052750;28;20043;-79
2024/01/20 11:09:35;;;;;;;44.50;24.27;;;1.70;99.90;;;;;;5051980;28;20032;-76
2024/01/20 11:12:09;;;;;;;44.60;24.60;;;1.70;99.90;;;;;;5053338;28;20037;-78
2024/01/20 11:14:35;;;;;;;46.00;24.77;;;1.70;99.90;;;;;;5049403;28;20104;-80
2024/01/20 11:17:14;;;;;;;46.37;24.57;;;1.70;99.90;;;;;;5035916;28;20035;-80
2024/01/20 11:19:41;;;;;;;40.53;24.07;;;1.70;99.90;;;;;;5052818;28;20032;-75
2024/01/20 11:22:33;;;;;;;42.77;22.53;;;1.80;99.90;;;;;;5034817;28;20403;-78
2024/01/20 11:25:05;;;;;;;45.10;24.92;;;1.90;99.90;;;;;;5049778;28;20482;-79
2024/01/20 11:27:47;;;;;;;44.03;24.60;;;1.90;99.90;;;;;;5045649;28;20486;-81
2024/01/20 11:30:23;;;;;;;40.97;22.53;;;1.90;99.90;;;;;;5067399;28;20279;-79
2024/01/20 11:32:50;;;;;;;42.10;23.90;;;1.80;99.90;;;;;;5052851;28;20396;-81
2024/01/20 11:35:16;;;;;;;38.43;22.63;;;1.80;99.90;;;;;;5052699;28;20035;-77
2024/01/20 11:37:43;;;;;;;41.50;23.33;;;1.80;99.90;;;;;;5034803;28;20040;-79
2024/01/20 11:40:11;;;;;;;38.03;20.87;;;1.80;99.90;;;;;;5050504;28;20078;-79
2024/01/20 11:42:38;;;;;;;41.50;23.30;;;1.90;99.90;;;;;;5031270;28;20036;-79
2024/01/20 11:45:06;;;;;;;38.40;21.90;;;1.90;99.90;;;;;;5050913;28;20021;-78
2024/01/20 11:47:32;;;;;;;44.78;25.02;;;1.90;99.90;;;;;;5047189;28;20056;-75
2024/01/20 11:49:59;;;;;;;43.43;23.53;;;2.00;99.90;;;;;;5034779;28;20020;-76
2024/01/20 11:52:26;;;;;;;43.30;23.97;;;2.00;99.90;;;;;;5033765;28;20031;-78
2024/01/20 11:54:52;;;;;;;41.47;23.23;;;2.10;99.90;;;;;;5034668;28;20036;-78
2024/01/20 11:57:26;;;;;;;37.80;21.00;;;2.20;99.90;;;;;;5050028;28;20036;-79
2024/01/20 11:59:53;;;;;;;44.45;24.27;;;2.20;99.90;;;;;;5068617;28;20044;-79
2024/01/20 12:02:22;;;;;;;38.17;23.27;;;2.30;99.90;;;;;;5052060;28;20486;-77
2024/01/20 12:04:49;;;;;;;42.10;24.53;;;2.30;99.90;;;;;;5052053;28;20411;-79
2024/01/20 12:07:16;;;;;;;40.03;23.63;;;2.40;99.90;;;;;;5034718;28;20032;-76
2024/01/20 12:09:47;;;;;;;42.50;24.53;;;2.50;99.90;;;;;;5016483;28;20373;-77
2024/01/20 12:12:15;;;;;;;41.60;24.80;;;2.50;99.90;;;;;;5027770;28;20330;-76
2024/01/20 12:14:46;;;;;;;40.13;22.80;;;2.60;99.90;;;;;;5035808;28;20423;-75
2024/01/20 12:17:13;;;;;;;40.77;24.33;;;2.60;99.90;;;;;;5083474;27;20036;-74
2024/01/20 12:19:41;;;;;;;41.50;24.53;;;2.60;99.90;;;;;;5033346;28;20037;-75
2024/01/20 12:22:09;;;;;;;37.90;22.23;;;2.60;99.90;;;;;;5084233;27;20029;-75
2024/01/20 12:24:36;;;;;;;38.30;22.83;;;2.60;99.90;;;;;;5050650;28;20041;-74
2024/01/20 12:27:05;;;;;;;36.55;21.80;;;2.50;99.90;;;;;;5033467;28;20519;-75
2024/01/20 12:29:32;;;;;;;39.60;22.45;;;2.60;99.90;;;;;;5049428;28;20028;-74